Time;durP1;ratioP1;P1;durP2;ratioP2;P2;SDS_P1;SDS_P2;PMS_P1;PMS_P2;Temp;Humidity;BMP_temperature;BMP_pressure;BME280_temperature;BME280_humidity;BME280_pressure;Samples;Min_cycle;Max_cycle;Signal;HPM_P1;HPM_P2
2022/03/16 00:01:38;;;;;;;41.40;19.42;;;3.70;99.90;;;;;;4990218;28;20049;-69
2022/03/16 00:04:04;;;;;;;40.55;20.45;;;3.70;99.90;;;;;;4990234;28;20471;-69
2022/03/16 00:06:29;;;;;;;43.03;20.48;;;3.70;99.90;;;;;;5008635;28;20038;-69
2022/03/16 00:08:55;;;;;;;54.53;23.65;;;3.60;99.90;;;;;;5022768;28;20057;-69
2022/03/16 00:11:21;;;;;;;45.38;22.77;;;3.70;99.90;;;;;;4987099;28;20070;-69
2022/03/16 00:13:46;;;;;;;50.45;22.20;;;3.70;99.90;;;;;;4964061;28;20485;-69
2022/03/16 00:16:12;;;;;;;46.10;22.02;;;3.80;99.90;;;;;;4986880;28;20046;-69
2022/03/16 00:18:38;;;;;;;45.25;21.58;;;3.90;99.90;;;;;;4998553;28;20379;-69
2022/03/16 00:21:03;;;;;;;41.42;21.90;;;3.90;99.90;;;;;;5007205;28;20132;-68
2022/03/16 00:23:29;;;;;;;44.88;23.65;;;3.90;99.90;;;;;;4986993;28;20058;-69
2022/03/16 00:25:55;;;;;;;39.60;21.30;;;3.80;99.90;;;;;;4983006;28;20129;-69
2022/03/16 00:28:21;;;;;;;42.13;22.40;;;3.80;99.90;;;;;;4990282;28;20042;-68
2022/03/16 00:30:46;;;;;;;42.65;21.33;;;3.90;99.90;;;;;;4988535;28;20532;-69
2022/03/16 00:33:12;;;;;;;46.40;22.38;;;4.00;99.90;;;;;;5002993;28;20061;-69
2022/03/16 00:35:38;;;;;;;48.47;22.92;;;4.10;99.90;;;;;;4978139;28;20157;-69
2022/03/16 00:38:05;;;;;;;47.72;22.83;;;4.20;99.90;;;;;;5003488;28;20049;-69
2022/03/16 00:40:33;;;;;;;60.92;22.92;;;4.20;99.90;;;;;;4991093;28;20791;-69
2022/03/16 00:43:00;;;;;;;47.42;21.73;;;4.10;99.90;;;;;;4989272;28;20495;-69
2022/03/16 00:45:26;;;;;;;49.38;22.92;;;4.00;99.90;;;;;;4986764;28;20045;-69
2022/03/16 00:47:52;;;;;;;44.47;21.27;;;3.90;99.90;;;;;;4980305;28;20046;-69
2022/03/16 00:50:18;;;;;;;45.92;21.90;;;3.70;99.90;;;;;;5006324;28;20164;-69
2022/03/16 00:52:43;;;;;;;46.25;22.52;;;3.70;99.90;;;;;;5022147;28;20054;-69
2022/03/16 00:55:09;;;;;;;50.08;22.27;;;3.70;99.90;;;;;;4989666;28;20088;-69
2022/03/16 00:57:35;;;;;;;49.40;21.95;;;3.70;99.90;;;;;;5007105;28;20563;-69
2022/03/16 01:00:01;;;;;;;49.88;22.60;;;3.80;99.90;;;;;;4987472;28;20094;-69
2022/03/16 01:02:27;;;;;;;41.90;20.52;;;3.90;99.90;;;;;;4985671;28;20049;-69
2022/03/16 01:04:53;;;;;;;45.65;21.10;;;3.90;99.90;;;;;;4985353;28;20042;-69
2022/03/16 01:07:18;;;;;;;49.17;21.70;;;3.90;99.90;;;;;;4989498;28;20057;-69
2022/03/16 01:09:44;;;;;;;45.08;21.92;;;4.00;99.90;;;;;;5022173;28;20045;-69
2022/03/16 01:12:10;;;;;;;51.40;22.45;;;4.00;99.90;;;;;;4974478;28;20060;-69
2022/03/16 01:14:36;;;;;;;41.90;21.10;;;4.00;99.90;;;;;;4989085;28;20053;-69
2022/03/16 01:17:02;;;;;;;36.65;19.40;;;4.10;99.90;;;;;;4999025;28;20059;-69
2022/03/16 01:19:29;;;;;;;43.83;20.58;;;4.10;99.90;;;;;;4991702;28;20263;-69
2022/03/16 01:21:55;;;;;;;43.03;20.08;;;4.20;99.90;;;;;;4989724;28;20052;-68
2022/03/16 01:24:21;;;;;;;44.75;20.27;;;4.30;99.90;;;;;;4988992;28;20049;-69
2022/03/16 01:26:47;;;;;;;44.13;20.65;;;4.30;99.90;;;;;;5021806;28;20042;-69
2022/03/16 01:29:12;;;;;;;41.22;20.65;;;4.30;99.90;;;;;;4988692;28;20130;-69
2022/03/16 01:31:38;;;;;;;43.88;21.23;;;4.40;99.90;;;;;;4969398;28;20049;-69
2022/03/16 01:34:04;;;;;;;36.95;19.35;;;4.30;99.90;;;;;;4982046;28;20050;-69
2022/03/16 01:36:30;;;;;;;45.35;18.83;;;4.30;99.90;;;;;;4982696;28;20046;-69
2022/03/16 01:38:56;;;;;;;40.78;18.73;;;4.20;99.90;;;;;;4976409;28;20061;-69
2022/03/16 01:41:22;;;;;;;39.95;18.48;;;4.20;99.90;;;;;;4989205;28;20054;-69
2022/03/16 01:43:56;;;;;;;38.33;18.88;;;4.30;99.90;;;;;;4989555;28;20033;-69
2022/03/16 01:46:22;;;;;;;38.70;17.70;;;4.30;99.90;;;;;;4989046;28;20041;-69
2022/03/16 01:48:50;;;;;;;39.45;19.05;;;4.40;99.90;;;;;;4985363;28;20074;-69
2022/03/16 01:51:15;;;;;;;37.65;18.08;;;4.50;99.90;;;;;;4963781;28;20076;-69
2022/03/16 01:53:41;;;;;;;35.35;18.10;;;4.50;99.90;;;;;;5022034;28;20081;-69
2022/03/16 01:56:09;;;;;;;36.83;18.02;;;4.50;99.90;;;;;;4988609;28;20453;-68
2022/03/16 01:58:35;;;;;;;39.13;17.80;;;4.40;99.90;;;;;;5004399;28;20417;-69
2022/03/16 02:01:01;;;;;;;42.75;19.27;;;4.30;99.90;;;;;;4988127;28;20061;-69
2022/03/16 02:03:27;;;;;;;36.55;17.75;;;4.30;99.90;;;;;;4988652;28;20053;-68
2022/03/16 02:05:55;;;;;;;36.70;18.90;;;4.10;99.90;;;;;;4982190;28;20052;-68
2022/03/16 02:08:21;;;;;;;35.65;17.83;;;4.10;99.90;;;;;;5006584;28;20551;-68
2022/03/16 02:10:46;;;;;;;32.90;16.85;;;4.10;99.90;;;;;;4988480;28;20574;-69
2022/03/16 02:13:12;;;;;;;38.50;18.42;;;4.00;99.90;;;;;;5004574;28;20049;-69
2022/03/16 02:15:38;;;;;;;37.10;17.67;;;4.00;99.90;;;;;;4990735;28;20092;-68
2022/03/16 02:18:04;;;;;;;32.90;17.50;;;3.90;99.90;;;;;;4988224;28;20876;-68
2022/03/16 02:20:30;;;;;;;30.38;16.45;;;3.90;99.90;;;;;;4985698;28;20038;-69
2022/03/16 02:23:01;;;;;;;34.00;17.13;;;3.90;99.90;;;;;;4995290;28;20925;-69
2022/03/16 02:25:30;;;;;;;24.60;14.73;;;3.80;99.90;;;;;;4982791;28;20121;-68
2022/03/16 02:27:56;;;;;;;28.45;16.77;;;3.70;99.90;;;;;;4986559;28;20430;-69
2022/03/16 02:30:25;;;;;;;33.40;15.98;;;3.50;99.90;;;;;;4976056;28;20045;-69
2022/03/16 02:32:53;;;;;;;31.08;15.90;;;3.50;99.90;;;;;;4997269;28;20075;-69
2022/03/16 02:35:19;;;;;;;27.67;16.15;;;3.30;99.90;;;;;;4984531;28;20043;-69
2022/03/16 02:37:45;;;;;;;35.35;16.42;;;3.30;99.90;;;;;;4980122;28;20057;-69
2022/03/16 02:40:17;;;;;;;31.55;17.08;;;3.30;99.90;;;;;;4984664;28;20031;-69
2022/03/16 02:42:43;;;;;;;34.08;17.90;;;3.40;99.90;;;;;;4991021;28;20045;-69
2022/03/16 02:45:09;;;;;;;36.28;16.98;;;3.30;99.90;;;;;;5009773;28;20045;-69
2022/03/16 02:47:37;;;;;;;44.78;18.63;;;3.30;99.90;;;;;;4989404;28;20046;-69
2022/03/16 02:50:03;;;;;;;38.53;18.13;;;3.20;99.90;;;;;;4986470;28;20396;-69
2022/03/16 02:52:29;;;;;;;35.80;17.33;;;3.10;99.90;;;;;;4982152;28;20105;-69
2022/03/16 02:54:55;;;;;;;45.40;18.92;;;3.10;99.90;;;;;;4992920;28;20067;-69
2022/03/16 02:57:21;;;;;;;31.75;16.05;;;3.00;99.90;;;;;;4988085;28;20125;-69
2022/03/16 02:59:46;;;;;;;39.30;16.50;;;2.90;99.90;;;;;;4982611;28;20066;-69
2022/03/16 03:02:12;;;;;;;36.28;16.77;;;2.90;99.90;;;;;;4991550;28;20136;-69
2022/03/16 03:04:38;;;;;;;27.15;15.55;;;2.80;99.90;;;;;;5002748;28;20098;-69
2022/03/16 03:07:05;;;;;;;31.48;17.05;;;2.70;99.90;;;;;;4995366;28;20038;-69
2022/03/16 03:09:31;;;;;;;27.90;13.35;;;2.60;99.90;;;;;;4994881;28;20050;-69
2022/03/16 03:11:59;;;;;;;33.78;14.68;;;2.50;99.90;;;;;;4995134;28;20088;-69
2022/03/16 03:14:28;;;;;;;22.48;12.82;;;2.30;99.90;;;;;;4991237;28;20049;-69
2022/03/16 03:16:54;;;;;;;17.52;11.38;;;2.20;99.90;;;;;;4988441;28;20045;-69
2022/03/16 03:19:21;;;;;;;13.88;9.65;;;2.10;99.90;;;;;;4987818;28;20042;-69
2022/03/16 03:21:47;;;;;;;21.60;11.40;;;2.00;99.90;;;;;;4993678;28;20077;-69
2022/03/16 03:24:13;;;;;;;25.05;10.55;;;1.90;99.90;;;;;;5023610;28;20053;-69
2022/03/16 03:26:39;;;;;;;20.23;10.93;;;1.80;99.90;;;;;;4991434;28;20046;-69
2022/03/16 03:29:05;;;;;;;16.98;10.70;;;1.70;99.90;;;;;;5000684;28;20057;-69
2022/03/16 03:31:31;;;;;;;17.55;10.32;;;1.60;99.90;;;;;;4993074;28;20043;-69
2022/03/16 03:33:58;;;;;;;20.95;11.15;;;1.60;99.90;;;;;;4983646;28;20081;-69
2022/03/16 03:36:23;;;;;;;17.33;10.48;;;1.60;99.90;;;;;;4995261;28;20089;-69
2022/03/16 03:38:49;;;;;;;27.52;11.55;;;1.50;99.90;;;;;;4977669;28;20082;-69
2022/03/16 03:41:15;;;;;;;24.33;13.55;;;1.40;99.90;;;;;;4996997;28;20041;-69
2022/03/16 03:43:41;;;;;;;18.75;12.48;;;1.40;99.90;;;;;;4975112;28;20406;-69
2022/03/16 03:46:06;;;;;;;32.20;15.38;;;1.40;99.90;;;;;;4987655;28;20046;-69
2022/03/16 03:48:32;;;;;;;27.60;15.32;;;1.50;99.90;;;;;;4987329;28;20050;-68
2022/03/16 03:50:59;;;;;;;29.45;15.30;;;1.50;99.90;;;;;;4990037;28;20052;-69
2022/03/16 03:53:24;;;;;;;32.10;15.45;;;1.60;99.90;;;;;;4975285;28;20046;-69
2022/03/16 03:55:50;;;;;;;38.58;15.32;;;1.70;99.90;;;;;;4987582;28;20034;-69
2022/03/16 03:58:16;;;;;;;29.38;15.05;;;1.80;99.90;;;;;;5003263;28;20050;-69
2022/03/16 04:00:42;;;;;;;24.73;13.80;;;1.80;99.90;;;;;;4991626;28;20069;-69
2022/03/16 04:03:07;;;;;;;29.92;13.45;;;1.70;99.90;;;;;;4989774;28;20500;-69
2022/03/16 04:05:33;;;;;;;25.75;13.05;;;1.70;99.90;;;;;;4987624;28;20129;-69
2022/03/16 04:07:59;;;;;;;32.65;15.90;;;1.60;99.90;;;;;;4963053;28;20042;-69
2022/03/16 04:10:25;;;;;;;26.40;13.75;;;1.50;99.90;;;;;;4971823;28;20054;-69
2022/03/16 04:12:51;;;;;;;23.35;13.70;;;1.50;99.90;;;;;;4998927;28;20046;-69
2022/03/16 04:15:18;;;;;;;31.02;15.85;;;1.50;99.90;;;;;;4990249;28;20625;-69
2022/03/16 04:17:44;;;;;;;36.20;18.00;;;1.60;99.90;;;;;;4987255;28;20065;-69
2022/03/16 04:20:09;;;;;;;39.03;17.48;;;1.60;99.90;;;;;;4976776;28;20046;-69
2022/03/16 04:22:36;;;;;;;35.67;16.50;;;1.70;99.90;;;;;;4993423;28;20095;-69
2022/03/16 04:25:02;;;;;;;31.80;16.60;;;1.70;99.90;;;;;;4987046;28;20046;-69
2022/03/16 04:27:29;;;;;;;28.95;15.30;;;1.80;99.90;;;;;;4981347;28;20046;-69
2022/03/16 04:29:55;;;;;;;39.10;16.70;;;1.90;99.90;;;;;;5006262;28;20125;-69
2022/03/16 04:32:20;;;;;;;38.17;16.85;;;1.90;99.90;;;;;;4986955;28;20088;-69
2022/03/16 04:34:47;;;;;;;44.85;18.15;;;1.90;99.90;;;;;;4989887;28;20042;-69
2022/03/16 04:37:12;;;;;;;39.15;16.27;;;1.90;99.90;;;;;;4989799;28;20049;-69
2022/03/16 04:39:38;;;;;;;35.92;17.17;;;1.90;99.90;;;;;;5023135;28;20057;-69
2022/03/16 04:42:05;;;;;;;39.40;18.52;;;1.90;99.90;;;;;;4973606;28;20033;-69
2022/03/16 04:44:30;;;;;;;33.55;16.90;;;1.90;99.90;;;;;;5005691;28;20088;-69
2022/03/16 04:46:56;;;;;;;34.83;17.15;;;1.90;99.90;;;;;;5007441;28;20054;-69
2022/03/16 04:49:22;;;;;;;37.05;15.55;;;2.00;99.90;;;;;;5007422;28;20030;-69
2022/03/16 04:51:47;;;;;;;38.28;16.73;;;2.00;99.90;;;;;;5005804;28;20431;-69
2022/03/16 04:54:14;;;;;;;34.47;16.40;;;2.00;99.90;;;;;;4992917;28;20085;-69
2022/03/16 04:56:40;;;;;;;30.92;15.30;;;1.90;99.90;;;;;;4993260;28;20849;-69
2022/03/16 04:59:06;;;;;;;36.35;17.05;;;2.10;99.90;;;;;;5000579;28;20137;-68
2022/03/16 05:01:32;;;;;;;36.35;17.33;;;2.80;99.90;;;;;;4986563;28;20133;-69
2022/03/16 05:03:58;;;;;;;33.75;17.25;;;2.80;99.90;;;;;;4985839;28;20050;-69
2022/03/16 05:06:24;;;;;;;40.55;17.98;;;2.70;99.90;;;;;;4988521;28;20034;-69
2022/03/16 05:08:50;;;;;;;44.83;19.55;;;2.60;99.90;;;;;;4988622;28;20034;-69
2022/03/16 05:11:16;;;;;;;43.22;18.67;;;2.60;99.90;;;;;;4966411;28;20121;-69
2022/03/16 05:13:43;;;;;;;32.20;15.48;;;2.80;99.90;;;;;;4959519;28;20047;-69
2022/03/16 05:16:09;;;;;;;37.88;17.55;;;3.00;99.90;;;;;;4932358;28;20047;-68
2022/03/16 05:18:35;;;;;;;36.90;15.80;;;3.10;99.90;;;;;;4965805;28;20078;-69
2022/03/16 05:21:03;;;;;;;33.28;16.70;;;3.10;99.90;;;;;;4950375;28;20073;-68
2022/03/16 05:23:30;;;;;;;37.60;18.73;;;3.30;99.90;;;;;;4966621;28;20082;-69
2022/03/16 05:25:56;;;;;;;29.15;14.48;;;3.50;99.90;;;;;;4962879;28;20042;-68
2022/03/16 05:28:22;;;;;;;35.80;18.20;;;3.70;99.90;;;;;;4967908;28;20049;-69
2022/03/16 05:30:47;;;;;;;35.17;17.02;;;3.70;99.90;;;;;;4960309;28;20101;-69
2022/03/16 05:33:14;;;;;;;28.02;14.18;;;3.80;99.90;;;;;;4937134;28;20046;-69
2022/03/16 05:35:41;;;;;;;27.95;16.50;;;3.90;99.90;;;;;;4953906;28;20050;-68
2022/03/16 05:38:08;;;;;;;35.55;17.98;;;3.80;99.90;;;;;;4973027;28;20401;-68
2022/03/16 05:40:35;;;;;;;32.78;15.30;;;4.00;99.90;;;;;;4963937;28;20042;-68
2022/03/16 05:43:02;;;;;;;30.98;17.85;;;3.90;99.90;;;;;;4967834;28;20042;-68
2022/03/16 05:45:27;;;;;;;33.05;16.17;;;3.90;99.90;;;;;;4949699;28;20378;-69
2022/03/16 05:47:53;;;;;;;33.00;16.45;;;3.90;99.90;;;;;;4928584;28;20117;-69
2022/03/16 05:50:19;;;;;;;36.47;16.92;;;3.90;99.90;;;;;;4980935;28;20042;-68
2022/03/16 05:52:46;;;;;;;29.92;17.00;;;3.90;99.90;;;;;;4975939;28;20053;-69
2022/03/16 05:55:13;;;;;;;33.50;16.92;;;3.80;99.90;;;;;;4970767;28;20223;-69
2022/03/16 05:57:44;;;;;;;34.15;16.52;;;3.80;99.90;;;;;;4966295;28;20471;-68
2022/03/16 06:00:14;;;;;;;36.47;15.95;;;3.80;99.90;;;;;;4986623;28;20053;-69
2022/03/16 06:02:41;;;;;;;31.98;17.55;;;3.80;99.90;;;;;;4985400;28;20162;-69
2022/03/16 06:05:08;;;;;;;33.78;18.55;;;3.80;99.90;;;;;;4983120;28;20126;-69
2022/03/16 06:07:34;;;;;;;33.53;17.77;;;3.80;99.90;;;;;;4985242;28;20050;-69
2022/03/16 06:10:00;;;;;;;36.60;17.58;;;3.80;99.90;;;;;;4990887;28;20057;-69
2022/03/16 06:12:26;;;;;;;37.60;19.25;;;3.80;99.90;;;;;;4990438;28;20046;-69
2022/03/16 06:14:52;;;;;;;33.40;18.77;;;3.90;99.90;;;;;;4984817;28;20089;-69
2022/03/16 06:17:17;;;;;;;30.90;15.30;;;3.90;99.90;;;;;;4999367;28;20072;-69
2022/03/16 06:19:43;;;;;;;31.83;17.67;;;3.90;99.90;;;;;;4989271;28;20072;-69
2022/03/16 06:22:09;;;;;;;32.88;16.33;;;3.90;99.90;;;;;;4996022;28;20054;-68
2022/03/16 06:24:34;;;;;;;27.98;15.55;;;4.00;99.90;;;;;;4984764;28;20057;-68
2022/03/16 06:27:00;;;;;;;33.55;17.10;;;4.00;99.90;;;;;;4981616;28;20061;-68
2022/03/16 06:29:26;;;;;;;35.47;17.63;;;4.00;99.90;;;;;;4982740;28;20046;-68
2022/03/16 06:31:51;;;;;;;33.42;16.73;;;4.00;99.90;;;;;;4991396;28;20039;-68
2022/03/16 06:34:18;;;;;;;40.33;18.55;;;4.00;99.90;;;;;;4978897;28;20054;-68
2022/03/16 06:36:44;;;;;;;31.77;17.80;;;4.00;99.90;;;;;;4969232;28;20050;-69
2022/03/16 06:39:10;;;;;;;33.15;16.88;;;4.00;99.90;;;;;;4977571;28;20088;-68
2022/03/16 06:41:35;;;;;;;25.52;15.93;;;4.00;99.90;;;;;;4989950;28;20542;-69
2022/03/16 06:44:02;;;;;;;29.85;16.60;;;4.00;99.90;;;;;;4975453;28;20042;-69
2022/03/16 06:46:27;;;;;;;28.83;15.50;;;4.00;99.90;;;;;;4983385;28;20065;-69
2022/03/16 06:48:53;;;;;;;27.40;14.38;;;4.00;99.90;;;;;;4985008;28;20046;-68
2022/03/16 06:51:19;;;;;;;29.65;16.15;;;4.10;99.90;;;;;;4967478;28;20049;-68
2022/03/16 06:53:45;;;;;;;31.30;17.00;;;4.10;99.90;;;;;;4997245;28;20062;-68
2022/03/16 06:56:10;;;;;;;30.17;15.27;;;4.10;99.90;;;;;;4980651;28;20042;-68
2022/03/16 06:58:36;;;;;;;27.92;15.75;;;4.10;99.90;;;;;;5018922;28;20034;-68
2022/03/16 07:01:02;;;;;;;29.27;16.30;;;4.10;99.90;;;;;;4984373;28;20090;-69
2022/03/16 07:03:28;;;;;;;34.15;16.52;;;4.10;99.90;;;;;;5000961;28;20500;-68
2022/03/16 07:05:54;;;;;;;34.80;17.48;;;4.10;99.90;;;;;;5005122;28;20062;-69
2022/03/16 07:08:19;;;;;;;37.20;17.95;;;4.20;99.90;;;;;;4968737;28;20046;-68
2022/03/16 07:10:45;;;;;;;34.65;18.02;;;4.20;99.90;;;;;;4987236;28;20050;-69
2022/03/16 07:13:12;;;;;;;39.50;19.15;;;4.20;99.90;;;;;;4985631;28;20448;-69
2022/03/16 07:15:39;;;;;;;32.15;18.27;;;4.20;99.90;;;;;;4982766;28;20096;-69
2022/03/16 07:18:05;;;;;;;37.83;19.52;;;4.30;99.90;;;;;;4968490;28;20049;-69
2022/03/16 07:20:32;;;;;;;35.55;18.58;;;4.40;99.90;;;;;;4977365;28;20051;-69
2022/03/16 07:23:13;;;;;;;33.67;19.13;;;4.40;99.90;;;;;;4988646;28;20122;-69
2022/03/16 07:25:46;;;;;;;34.10;19.55;;;4.40;99.90;;;;;;4993871;28;20042;-69
2022/03/16 07:28:12;;;;;;;36.28;18.10;;;4.40;99.90;;;;;;4987083;28;20049;-69
2022/03/16 07:30:39;;;;;;;38.10;18.83;;;4.50;99.90;;;;;;4996462;28;20050;-68
2022/03/16 07:33:06;;;;;;;39.13;18.92;;;4.50;99.90;;;;;;4988814;28;20408;-69
2022/03/16 07:35:32;;;;;;;34.17;19.40;;;4.60;99.90;;;;;;5013908;28;20373;-68
2022/03/16 07:38:01;;;;;;;38.47;20.60;;;4.70;99.90;;;;;;4990534;28;20042;-69
2022/03/16 07:40:30;;;;;;;34.92;18.35;;;4.70;99.90;;;;;;4990969;28;20045;-69
2022/03/16 07:42:56;;;;;;;35.10;18.05;;;4.80;99.90;;;;;;4974718;28;20052;-69
2022/03/16 07:45:22;;;;;;;39.78;20.05;;;4.90;99.90;;;;;;4991142;28;20034;-69
2022/03/16 07:47:50;;;;;;;35.47;19.30;;;5.00;99.90;;;;;;4988038;28;20038;-69
2022/03/16 07:50:19;;;;;;;38.47;20.92;;;5.00;99.90;;;;;;4987510;28;20054;-69
2022/03/16 07:52:45;;;;;;;38.93;19.83;;;5.00;99.90;;;;;;4987580;28;20188;-69
2022/03/16 07:55:13;;;;;;;37.55;18.00;;;5.10;99.90;;;;;;4985913;28;20384;-69
2022/03/16 07:57:39;;;;;;;35.22;19.45;;;5.20;99.90;;;;;;4992312;28;20053;-69
2022/03/16 08:00:07;;;;;;;37.95;18.77;;;5.30;99.90;;;;;;4980079;28;20090;-69
2022/03/16 08:02:33;;;;;;;36.38;19.05;;;5.30;99.90;;;;;;4973043;28;20045;-69
2022/03/16 08:05:00;;;;;;;36.58;19.10;;;5.40;99.90;;;;;;4984376;28;20056;-69
2022/03/16 08:07:30;;;;;;;36.50;20.08;;;5.50;99.90;;;;;;4970907;28;20456;-69
2022/03/16 08:09:59;;;;;;;37.97;19.45;;;5.70;99.90;;;;;;4967993;28;20448;-69
2022/03/16 08:12:26;;;;;;;37.15;21.30;;;5.80;99.90;;;;;;4966562;28;20057;-69
2022/03/16 08:14:52;;;;;;;41.65;22.38;;;6.00;99.90;;;;;;4975282;28;20045;-69
2022/03/16 08:17:18;;;;;;;47.67;22.00;;;6.20;99.90;;;;;;4971838;28;20038;-69
2022/03/16 08:19:45;;;;;;;45.63;23.15;;;6.40;99.90;;;;;;4970679;28;20045;-69
2022/03/16 08:22:10;;;;;;;40.75;22.25;;;6.50;99.90;;;;;;4954802;28;20046;-69
2022/03/16 08:24:37;;;;;;;49.20;24.45;;;6.70;99.90;;;;;;5003242;28;20042;-69
2022/03/16 08:27:03;;;;;;;32.03;17.85;;;6.70;99.90;;;;;;4974124;28;20053;-69
2022/03/16 08:29:28;;;;;;;44.53;22.08;;;6.70;99.90;;;;;;4970608;28;20085;-69
2022/03/16 08:31:54;;;;;;;38.28;18.35;;;6.70;99.90;;;;;;4975877;28;20077;-69
2022/03/16 08:34:20;;;;;;;45.42;24.10;;;6.70;99.90;;;;;;4972990;28;20034;-69
2022/03/16 08:36:46;;;;;;;45.95;24.08;;;6.70;99.90;;;;;;4952798;28;20133;-70
2022/03/16 08:39:12;;;;;;;46.42;24.20;;;6.90;99.90;;;;;;4978929;28;20590;-69
2022/03/16 08:41:38;;;;;;;47.42;24.02;;;7.10;99.90;;;;;;4969981;28;20062;-69
2022/03/16 08:44:04;;;;;;;43.58;22.67;;;7.10;99.90;;;;;;4971117;28;20046;-69
2022/03/16 08:46:30;;;;;;;45.08;23.20;;;7.20;99.90;;;;;;5006017;28;20042;-69
2022/03/16 08:48:55;;;;;;;49.10;23.38;;;7.20;99.90;;;;;;4970438;28;20046;-69
2022/03/16 08:51:21;;;;;;;42.60;22.85;;;7.20;99.90;;;;;;4970776;28;20042;-70
2022/03/16 08:53:47;;;;;;;51.85;26.88;;;7.40;99.90;;;;;;4969829;28;20378;-69
2022/03/16 08:56:13;;;;;;;45.72;23.80;;;7.40;99.90;;;;;;4972014;28;20069;-68
2022/03/16 08:58:39;;;;;;;52.08;24.95;;;7.60;99.90;;;;;;4969310;28;20061;-69
2022/03/16 09:01:05;;;;;;;57.83;27.80;;;7.70;99.90;;;;;;4980528;28;20133;-69
2022/03/16 09:03:31;;;;;;;53.65;25.05;;;7.90;99.90;;;;;;5021862;28;20133;-69
2022/03/16 09:05:59;;;;;;;48.78;25.63;;;7.90;99.90;;;;;;4994887;28;20479;-69
2022/03/16 09:08:24;;;;;;;58.28;27.52;;;8.00;99.90;;;;;;4990252;28;20108;-69
2022/03/16 09:10:50;;;;;;;53.50;26.30;;;8.10;99.90;;;;;;4988307;28;20484;-69
2022/03/16 09:13:17;;;;;;;55.88;27.63;;;8.10;99.90;;;;;;4988758;28;20046;-69
2022/03/16 09:15:44;;;;;;;55.60;28.77;;;8.10;99.90;;;;;;4990228;28;20440;-69
2022/03/16 09:18:10;;;;;;;53.00;24.83;;;8.10;99.90;;;;;;4994307;28;20056;-69
2022/03/16 09:20:37;;;;;;;61.58;29.00;;;8.20;99.90;;;;;;4986895;28;20045;-69
2022/03/16 09:23:03;;;;;;;43.13;22.52;;;8.30;99.90;;;;;;4988637;28;20077;-69
2022/03/16 09:25:29;;;;;;;49.08;25.75;;;8.40;99.90;;;;;;4965808;28;20097;-68
2022/03/16 09:27:55;;;;;;;50.63;25.42;;;8.50;99.90;;;;;;4989289;28;20085;-69
2022/03/16 09:30:22;;;;;;;40.13;19.13;;;8.50;99.90;;;;;;4986354;28;20046;-69
2022/03/16 09:32:48;;;;;;;60.88;30.48;;;8.50;99.90;;;;;;4983164;28;20054;-69
2022/03/16 09:35:13;;;;;;;30.98;15.27;;;8.70;99.90;;;;;;4987208;28;20042;-69
2022/03/16 09:37:40;;;;;;;50.70;21.17;;;8.80;99.90;;;;;;4986806;28;20092;-69
2022/03/16 09:40:07;;;;;;;33.63;15.57;;;8.80;99.90;;;;;;4986601;28;20102;-69
2022/03/16 09:42:33;;;;;;;56.53;25.90;;;8.90;99.90;;;;;;4986634;28;20057;-69
2022/03/16 09:45:02;;;;;;;34.35;16.48;;;9.10;99.90;;;;;;4969727;28;20042;-69
2022/03/16 09:47:30;;;;;;;55.72;28.00;;;9.20;99.90;;;;;;4988908;28;20040;-69
2022/03/16 09:49:56;;;;;;;54.03;28.90;;;9.10;99.90;;;;;;4971828;28;20433;-70
2022/03/16 09:52:26;;;;;;;56.92;24.27;;;9.20;99.90;;;;;;4989109;28;20455;-69
2022/03/16 09:54:53;;;;;;;52.50;26.83;;;9.40;99.90;;;;;;4971872;28;20042;-69
2022/03/16 09:57:19;;;;;;;57.60;30.30;;;9.50;99.90;;;;;;4955805;28;20049;-69
2022/03/16 09:59:45;;;;;;;49.70;23.25;;;9.60;99.90;;;;;;4987820;28;20068;-69
2022/03/16 10:02:17;;;;;;;32.28;16.30;;;9.60;99.90;;;;;;4990709;28;20499;-69
2022/03/16 10:04:46;;;;;;;43.33;17.33;;;9.80;99.90;;;;;;4985211;28;20050;-69
2022/03/16 10:07:12;;;;;;;49.70;26.08;;;9.80;99.90;;;;;;4986582;28;20093;-69
2022/03/16 10:15:19;;;;;;;46.67;25.63;;;10.20;99.90;;;;;;4988017;28;20050;-69
2022/03/16 10:17:50;;;;;;;44.53;23.48;;;10.40;99.90;;;;;;5021285;28;20061;-69
2022/03/16 10:20:21;;;;;;;26.08;13.20;;;10.60;99.90;;;;;;5005632;28;20121;-70
2022/03/16 10:22:54;;;;;;;42.00;18.50;;;10.80;99.90;;;;;;4989702;28;20137;-69
2022/03/16 10:25:21;;;;;;;47.67;24.42;;;11.00;99.90;;;;;;4994734;28;20057;-70
2022/03/16 10:27:46;;;;;;;33.67;17.10;;;11.00;99.90;;;;;;5020793;28;20369;-69
2022/03/16 10:30:13;;;;;;;46.30;21.50;;;11.00;99.90;;;;;;4972065;28;20053;-69
2022/03/16 10:32:39;;;;;;;37.33;22.48;;;11.00;99.90;;;;;;4987831;28;20052;-69
2022/03/16 10:35:06;;;;;;;41.75;20.70;;;11.20;99.90;;;;;;4994055;28;20551;-69
2022/03/16 10:37:35;;;;;;;32.63;13.90;;;11.30;99.90;;;;;;4985249;28;20496;-69
2022/03/16 10:40:05;;;;;;;36.83;23.08;;;11.40;99.90;;;;;;4987417;28;20058;-69
2022/03/16 10:48:16;;;;;;;32.85;14.57;;;11.50;99.90;;;;;;4995471;28;20125;-69
2022/03/16 10:50:43;;;;;;;33.65;15.15;;;11.60;99.90;;;;;;4987619;28;20041;-69
2022/03/16 10:53:10;;;;;;;22.33;13.35;;;11.60;99.90;;;;;;4987980;28;20046;-69
2022/03/16 10:55:38;;;;;;;35.78;21.30;;;11.50;99.90;;;;;;5006325;28;20079;-68
2022/03/16 10:58:06;;;;;;;25.80;13.73;;;11.60;99.90;;;;;;5004211;28;20466;-69
2022/03/16 11:00:37;;;;;;;28.42;14.80;;;11.80;99.90;;;;;;4981481;28;20500;-69
2022/03/16 11:03:15;;;;;;;41.00;20.35;;;12.00;99.90;;;;;;5022720;28;20060;-69
2022/03/16 11:05:42;;;;;;;13.48;6.90;;;12.10;99.90;;;;;;4992606;28;20859;-69
2022/03/16 11:08:09;;;;;;;17.33;9.02;;;12.20;99.90;;;;;;4991542;28;20038;-69
2022/03/16 11:10:37;;;;;;;12.32;6.65;;;12.20;99.90;;;;;;4989180;28;20472;-70
2022/03/16 11:15:50;;;;;;;21.65;9.93;;;12.00;99.90;;;;;;4992268;28;20189;-69
2022/03/16 11:18:20;;;;;;;21.60;12.18;;;12.20;99.90;;;;;;5008450;28;20089;-69
2022/03/16 11:20:48;;;;;;;29.80;16.45;;;12.10;99.90;;;;;;4988780;28;20048;-68
2022/03/16 11:26:13;;;;;;;29.58;17.40;;;12.10;99.90;;;;;;4988645;28;20136;-69
2022/03/16 11:28:51;;;;;;;27.33;11.93;;;12.10;99.90;;;;;;4989826;28;20404;-69
2022/03/16 11:31:23;;;;;;;26.40;15.82;;;12.10;99.90;;;;;;4990705;28;20090;-69
2022/03/16 11:33:52;;;;;;;25.73;12.43;;;12.20;99.90;;;;;;4981453;28;20046;-69
2022/03/16 11:36:38;;;;;;;28.42;16.27;;;12.20;99.90;;;;;;4973626;28;20144;-69
2022/03/16 11:39:22;;;;;;;30.65;17.20;;;12.20;99.90;;;;;;4990626;28;20049;-69
2022/03/16 11:41:53;;;;;;;22.45;12.50;;;12.40;99.90;;;;;;4990099;28;20388;-69
2022/03/16 11:44:25;;;;;;;20.35;12.55;;;12.50;99.90;;;;;;4993004;28;20427;-69
2022/03/16 11:46:55;;;;;;;12.10;7.30;;;12.70;99.90;;;;;;4993145;28;20081;-69
2022/03/16 11:49:28;;;;;;;;;;;12.70;99.90;;;;;;5000839;28;20494;-69
2022/03/16 11:52:00;;;;;;;16.30;7.53;;;12.80;99.90;;;;;;4989895;28;19926;-70
2022/03/16 11:54:42;;;;;;;18.48;10.93;;;12.80;99.90;;;;;;4990559;28;20407;-69
2022/03/16 11:57:09;;;;;;;10.43;6.13;;;12.80;99.90;;;;;;5005547;28;20120;-69
2022/03/16 11:59:46;;;;;;;9.52;4.72;;;13.00;99.90;;;;;;4990465;28;20435;-70
2022/03/16 12:02:24;;;;;;;14.63;9.23;;;13.00;99.90;;;;;;4988855;28;20054;-69
2022/03/16 12:04:58;;;;;;;12.10;7.38;;;13.00;99.90;;;;;;4990152;28;20124;-69
2022/03/16 12:07:28;;;;;;;14.05;8.15;;;13.10;99.90;;;;;;4988063;28;20100;-69
2022/03/16 12:09:54;;;;;;;13.48;7.00;;;13.10;99.90;;;;;;5019605;28;20046;-68
2022/03/16 12:15:14;;;;;;;18.65;8.05;;;13.30;99.90;;;;;;4986965;28;20038;-69
2022/03/16 12:17:53;;;;;;;13.27;8.43;;;13.40;99.90;;;;;;4992507;28;20061;-69
2022/03/16 12:20:22;;;;;;;8.38;5.47;;;13.60;99.90;;;;;;4988878;28;21328;-69
2022/03/16 12:22:53;;;;;;;22.20;9.82;;;13.50;99.90;;;;;;4989376;28;20125;-69
2022/03/16 12:25:29;;;;;;;16.35;8.50;;;13.70;99.90;;;;;;4989122;28;20065;-69
2022/03/16 12:31:08;;;;;;;16.20;7.75;;;14.00;99.90;;;;;;4989250;28;20037;-69
2022/03/16 12:33:40;;;;;;;8.27;6.03;;;14.10;99.90;;;;;;4989734;28;20582;-68
2022/03/16 12:36:12;;;;;;;4.38;2.65;;;13.90;99.90;;;;;;4987853;28;20050;-70
2022/03/16 12:38:49;;;;;;;10.68;5.60;;;13.90;99.90;;;;;;4986529;28;20050;-69
2022/03/16 12:44:03;;;;;;;8.57;5.47;;;13.80;99.90;;;;;;4988566;28;20045;-70
2022/03/16 12:46:57;;;;;;;17.55;5.60;;;13.70;99.90;;;;;;4988314;28;20424;-69
2022/03/16 12:49:24;;;;;;;13.18;6.35;;;13.70;99.90;;;;;;4987163;28;20113;-70
2022/03/16 12:52:00;;;;;;;11.45;5.85;;;13.70;99.90;;;;;;4987846;28;20093;-69
2022/03/16 12:54:34;;;;;;;7.38;5.10;;;13.70;99.90;;;;;;5002771;28;20085;-69
2022/03/16 12:57:03;;;;;;;9.30;5.57;;;13.70;99.90;;;;;;4991074;28;20049;-69
2022/03/16 12:59:38;;;;;;;9.95;4.32;;;13.70;99.90;;;;;;4987889;28;20046;-69
2022/03/16 13:02:10;;;;;;;11.35;6.00;;;13.70;99.90;;;;;;5005601;28;20046;-69